createdAt,value
2018-07-03T00:01:39.232Z,100962.03
2018-07-03T00:04:07.247Z,100965.16
2018-07-03T00:06:35.268Z,100964.55
2018-07-03T00:09:03.375Z,100958.20
2018-07-03T00:11:31.404Z,100962.00
2018-07-03T00:13:59.421Z,100966.13
2018-07-03T00:16:32.884Z,100964.17
2018-07-03T00:19:00.875Z,100966.99
2018-07-03T00:21:28.880Z,100968.44
2018-07-03T00:23:56.885Z,100973.89
2018-07-03T00:26:24.868Z,100975.38
2018-07-03T00:28:52.863Z,100979.49
2018-07-03T00:31:20.885Z,100981.27
2018-07-03T00:33:48.896Z,100973.16
2018-07-03T00:36:16.941Z,100982.11
2018-07-03T00:38:44.951Z,100979.35
2018-07-03T00:41:13.009Z,100980.56
2018-07-03T00:43:41.034Z,100978.73
2018-07-03T00:46:09.087Z,100984.93
2018-07-03T00:48:37.097Z,100979.97
2018-07-03T00:51:05.148Z,100977.68
2018-07-03T00:53:33.125Z,100978.00
2018-07-03T00:56:01.129Z,100976.98
2018-07-03T00:58:29.214Z,100979.17
2018-07-03T01:00:57.254Z,100973.70
2018-07-03T01:03:25.247Z,100976.73
2018-07-03T01:05:53.281Z,100977.23
2018-07-03T01:08:21.334Z,100981.23
2018-07-03T01:10:49.336Z,100981.09
2018-07-03T01:13:17.404Z,100972.75
2018-07-03T01:15:45.426Z,100975.91
2018-07-03T01:18:13.425Z,100973.22
2018-07-03T01:20:41.454Z,100975.43
2018-07-03T01:23:09.509Z,100981.97
2018-07-03T01:25:37.500Z,100979.42
2018-07-03T01:28:05.492Z,100979.01
2018-07-03T01:30:33.516Z,100977.92
2018-07-03T01:33:01.567Z,100975.62
2018-07-03T01:35:29.564Z,100974.53
2018-07-03T01:37:57.573Z,100977.16
2018-07-03T01:40:25.577Z,100981.75
2018-07-03T01:42:53.693Z,100973.52
2018-07-03T01:45:21.709Z,100977.89
2018-07-03T01:47:49.864Z,100977.66
2018-07-03T01:50:17.866Z,100972.92
2018-07-03T01:52:46.304Z,100971.09
2018-07-03T01:55:14.287Z,100964.92
2018-07-03T01:57:42.366Z,100962.36
2018-07-03T02:00:10.386Z,100964.05
2018-07-03T02:02:38.474Z,100966.71
2018-07-03T02:05:06.483Z,100962.22
2018-07-03T02:07:34.552Z,100962.22
2018-07-03T02:10:02.561Z,100961.73
2018-07-03T02:12:30.564Z,100957.48
2018-07-03T02:14:59.107Z,100950.18
2018-07-03T02:17:27.144Z,100945.44
2018-07-03T02:19:55.161Z,100946.24
2018-07-03T02:22:23.221Z,100948.34
2018-07-03T02:24:51.247Z,100943.75
2018-07-03T02:27:19.233Z,100938.67
2018-07-03T02:29:47.230Z,100944.48
2018-07-03T02:32:15.228Z,100934.30
2018-07-03T02:34:43.285Z,100923.75
2018-07-03T02:37:11.553Z,100926.73
2018-07-03T02:39:39.630Z,100918.77
2018-07-03T02:42:07.622Z,100919.19
2018-07-03T02:44:35.652Z,100916.88
2018-07-03T02:47:03.677Z,100924.06
2018-07-03T02:49:31.680Z,100918.59
2018-07-03T02:51:59.718Z,100909.44
2018-07-03T02:54:27.719Z,100916.34
2018-07-03T02:56:55.731Z,100916.08
2018-07-03T02:59:23.721Z,100918.45
2018-07-03T03:01:51.763Z,100918.25
2018-07-03T03:04:19.758Z,100922.29
2018-07-03T03:06:47.781Z,100919.38
2018-07-03T03:09:15.800Z,100922.14
2018-07-03T03:11:43.872Z,100921.66
2018-07-03T03:14:11.892Z,100924.45
2018-07-03T03:16:39.916Z,100918.80
2018-07-03T03:19:07.912Z,100927.40
2018-07-03T03:21:35.900Z,100924.46
2018-07-03T03:24:03.921Z,100914.38
2018-07-03T03:26:32.685Z,100915.16
2018-07-03T03:29:00.697Z,100910.35
2018-07-03T03:31:28.765Z,100914.52
2018-07-03T03:33:56.799Z,100910.38
2018-07-03T03:36:24.788Z,100908.45
2018-07-03T03:38:52.775Z,100918.23
2018-07-03T03:41:20.761Z,100913.27
2018-07-03T03:43:48.769Z,100910.96
2018-07-03T03:46:16.753Z,100911.60
2018-07-03T03:48:44.772Z,100911.09
2018-07-03T03:51:12.774Z,100917.73
2018-07-03T03:53:40.856Z,100913.24
2018-07-03T03:56:08.808Z,100911.02
2018-07-03T03:58:36.820Z,100914.55
2018-07-03T04:01:04.841Z,100911.63
2018-07-03T04:03:32.865Z,100914.36
2018-07-03T04:06:00.889Z,100911.78
2018-07-03T04:08:28.870Z,100915.89
2018-07-03T04:10:57.077Z,100911.32
2018-07-03T04:13:25.092Z,100918.17
2018-07-03T04:15:53.107Z,100914.87
2018-07-03T04:18:29.812Z,100919.69
2018-07-03T04:20:57.976Z,100919.50
2018-07-03T04:23:26.009Z,100925.22
2018-07-03T04:25:54.237Z,100923.90
2018-07-03T04:28:22.256Z,100917.76
2018-07-03T04:30:50.281Z,100914.64
2018-07-03T04:33:18.272Z,100919.03
2018-07-03T04:35:46.346Z,100924.61
2018-07-03T04:38:14.500Z,100916.48
2018-07-03T04:40:42.499Z,100922.40
2018-07-03T04:43:10.664Z,100919.04
2018-07-03T04:45:38.728Z,100923.31
2018-07-03T04:48:06.781Z,100926.33
2018-07-03T04:50:34.844Z,100926.21
2018-07-03T04:53:02.846Z,100931.19
2018-07-03T04:55:30.854Z,100927.30
2018-07-03T04:57:59.189Z,100928.66
2018-07-03T05:00:27.275Z,100932.14
2018-07-03T05:02:55.348Z,100931.95
2018-07-03T05:05:23.374Z,100925.77
2018-07-03T05:07:51.396Z,100927.55
2018-07-03T05:10:19.444Z,100928.83
2018-07-03T05:12:47.422Z,100924.09
2018-07-03T05:15:15.673Z,100923.55
2018-07-03T05:17:43.704Z,100932.19
2018-07-03T05:20:11.740Z,100926.05
2018-07-03T05:22:40.391Z,100939.91
2018-07-03T05:25:08.421Z,100937.82
2018-07-03T05:27:36.455Z,100937.78
2018-07-03T05:30:05.236Z,100939.61
2018-07-03T05:32:33.268Z,100955.05
2018-07-03T05:35:01.277Z,100948.71
2018-07-03T05:37:29.269Z,100952.37
2018-07-03T05:39:57.341Z,100950.84
2018-07-03T05:42:25.350Z,100958.07
2018-07-03T05:44:53.345Z,100957.59
2018-07-03T05:47:21.392Z,100966.73
2018-07-03T05:49:49.417Z,100973.39
2018-07-03T05:52:18.467Z,100973.51
2018-07-03T05:54:46.464Z,100978.00
2018-07-03T05:57:14.491Z,100982.79
2018-07-03T05:59:42.508Z,100995.65
2018-07-03T06:02:11.516Z,100994.91
2018-07-03T06:04:39.538Z,100998.40
2018-07-03T06:07:07.545Z,100993.55
2018-07-03T06:09:35.564Z,101003.92
2018-07-03T06:12:03.550Z,101001.67
2018-07-03T06:14:31.568Z,101000.41
2018-07-03T06:16:59.666Z,101005.91
2018-07-03T06:19:27.676Z,101006.91
2018-07-03T06:21:56.592Z,101012.06
2018-07-03T06:24:24.892Z,101007.55
2018-07-03T06:26:52.889Z,101015.63
2018-07-03T06:29:20.913Z,101011.86
2018-07-03T06:31:49.101Z,101018.80
2018-07-03T06:34:17.104Z,101017.95
2018-07-03T06:36:45.141Z,101017.97
2018-07-03T06:39:14.223Z,101022.00
2018-07-03T06:41:42.302Z,101018.98
2018-07-03T06:44:10.868Z,101017.82
2018-07-03T06:46:38.901Z,101022.20
2018-07-03T06:49:06.914Z,101017.55
2018-07-03T06:51:34.954Z,101017.08
2018-07-03T06:54:03.032Z,101012.05
2018-07-03T06:56:31.094Z,101011.73
2018-07-03T06:58:59.523Z,101013.44
2018-07-03T07:01:28.340Z,101019.23
2018-07-03T07:03:57.349Z,101011.79
2018-07-03T07:06:25.351Z,101014.10
2018-07-03T07:08:53.488Z,101011.48
2018-07-03T07:11:21.428Z,101008.66
2018-07-03T07:13:49.453Z,101013.28
2018-07-03T07:16:17.444Z,101010.80
2018-07-03T07:18:45.446Z,101012.09
2018-07-03T07:21:13.453Z,101002.29
2018-07-03T07:23:41.497Z,101003.75
2018-07-03T07:26:09.543Z,101008.94
2018-07-03T07:28:38.409Z,101004.30
2018-07-03T07:31:06.494Z,101000.41
2018-07-03T07:33:34.496Z,101008.93
2018-07-03T07:36:02.519Z,101005.81
2018-07-03T07:38:30.480Z,101000.15
2018-07-03T07:40:58.494Z,101004.11
2018-07-03T07:43:26.510Z,100998.38
2018-07-03T07:45:54.517Z,100995.64
2018-07-03T07:48:22.524Z,100992.00
2018-07-03T07:50:50.539Z,100996.16
2018-07-03T07:53:18.560Z,100995.33
2018-07-03T07:55:46.535Z,100992.55
2018-07-03T07:58:14.566Z,100988.92
2018-07-03T08:00:42.565Z,100992.20
2018-07-03T08:03:10.576Z,100990.34
2018-07-03T08:05:38.590Z,100994.83
2018-07-03T08:08:06.689Z,100993.78
2018-07-03T08:10:34.710Z,100992.89
2018-07-03T08:13:02.728Z,100990.64
2018-07-03T08:15:30.757Z,100986.47
2018-07-03T08:17:58.732Z,100980.21
2018-07-03T08:20:26.740Z,100977.97
2018-07-03T08:22:55.060Z,100976.09
2018-07-03T08:25:23.342Z,100980.88
2018-07-03T08:27:51.357Z,100976.64
2018-07-03T08:30:19.337Z,100977.53
2018-07-03T08:32:47.316Z,100963.11
2018-07-03T08:35:15.985Z,100976.59
2018-07-03T08:37:43.966Z,100974.58
2018-07-03T08:40:11.941Z,100963.86
2018-07-03T08:42:39.961Z,100965.70
2018-07-03T08:45:08.359Z,100958.72
2018-07-03T08:47:36.376Z,100962.17
2018-07-03T08:50:04.505Z,100960.85
2018-07-03T08:52:32.509Z,100952.69
2018-07-03T08:55:00.556Z,100946.08
2018-07-03T08:57:28.548Z,100954.81
2018-07-03T08:59:56.600Z,100952.44
2018-07-03T09:02:24.623Z,100958.33
2018-07-03T09:04:52.883Z,100952.08
2018-07-03T09:07:20.906Z,100953.83
2018-07-03T09:09:48.907Z,100955.37
2018-07-03T09:12:16.932Z,100953.61
2018-07-03T09:14:45.132Z,100945.88
2018-07-03T09:17:18.577Z,100939.27
2018-07-03T09:19:46.580Z,100945.87
2018-07-03T09:22:14.616Z,100942.67
2018-07-03T09:24:42.852Z,100941.84
2018-07-03T09:27:10.889Z,100928.26
2018-07-03T09:29:38.876Z,100933.59
2018-07-03T09:32:06.922Z,100935.12
2018-07-03T09:34:34.948Z,100931.84
2018-07-03T09:37:03.400Z,100929.42
2018-07-03T09:39:31.458Z,100924.41
2018-07-03T09:41:59.473Z,100927.22
2018-07-03T09:44:27.528Z,100920.56
2018-07-03T09:46:55.554Z,100923.81
2018-07-03T09:49:23.556Z,100918.14
2018-07-03T09:51:51.585Z,100906.64
2018-07-03T09:54:19.604Z,100913.20
2018-07-03T09:56:47.606Z,100918.21
2018-07-03T09:59:15.665Z,100906.52
2018-07-03T10:01:43.668Z,100912.31
2018-07-03T10:04:11.733Z,100910.90
2018-07-03T10:06:39.788Z,100905.38
2018-07-03T10:09:09.264Z,100909.98
2018-07-03T10:11:37.302Z,100906.20
2018-07-03T10:14:05.307Z,100909.06
2018-07-03T10:16:33.371Z,100914.66
2018-07-03T10:19:01.387Z,100911.18
2018-07-03T10:21:29.414Z,100904.30
2018-07-03T10:23:57.422Z,100901.53
2018-07-03T10:26:25.497Z,100904.84
2018-07-03T10:28:53.537Z,100905.56
2018-07-03T10:31:21.721Z,100900.76
2018-07-03T10:33:49.732Z,100898.78
2018-07-03T10:36:17.746Z,100904.61
2018-07-03T10:38:45.930Z,100901.13
2018-07-03T10:41:14.091Z,100895.70
2018-07-03T10:43:42.088Z,100897.27
2018-07-03T10:46:10.444Z,100890.02
2018-07-03T10:48:38.470Z,100889.63
2018-07-03T10:51:06.561Z,100883.72
2018-07-03T10:53:34.591Z,100894.46
2018-07-03T10:56:02.598Z,100891.00
2018-07-03T10:58:30.610Z,100888.94
2018-07-03T11:00:58.642Z,100878.27
2018-07-03T11:03:26.644Z,100881.48
2018-07-03T11:05:54.705Z,100878.55
2018-07-03T11:08:22.902Z,100869.53
2018-07-03T11:10:50.912Z,100870.34
2018-07-03T11:13:19.032Z,100864.25
2018-07-03T11:15:47.081Z,100870.83
2018-07-03T11:18:15.739Z,100867.61
2018-07-03T11:20:43.778Z,100862.34
2018-07-03T11:23:11.889Z,100865.21
2018-07-03T11:25:39.913Z,100875.06
2018-07-03T11:28:07.963Z,100869.58
2018-07-03T11:30:35.973Z,100866.16
2018-07-03T11:33:04.012Z,100859.48
2018-07-03T11:35:32.000Z,100862.08
2018-07-03T11:38:00.032Z,100868.63
2018-07-03T11:40:28.060Z,100857.00
2018-07-03T11:42:56.158Z,100853.91
2018-07-03T11:45:24.105Z,100855.59
2018-07-03T11:47:52.120Z,100853.66
2018-07-03T11:50:20.125Z,100853.53
2018-07-03T11:52:48.180Z,100845.66
2018-07-03T11:55:16.205Z,100854.02
2018-07-03T11:57:44.281Z,100854.92
2018-07-03T12:00:12.311Z,100852.98
2018-07-03T12:02:40.318Z,100851.05
2018-07-03T12:05:08.361Z,100844.06
2018-07-03T12:07:36.418Z,100844.78
2018-07-03T12:10:05.037Z,100850.68
2018-07-03T12:12:33.049Z,100845.55
2018-07-03T12:15:01.054Z,100839.44
2018-07-03T12:17:29.080Z,100836.24
2018-07-03T12:19:57.154Z,100832.88
2018-07-03T12:22:25.119Z,100825.89
2018-07-03T12:24:53.125Z,100836.29
2018-07-03T12:27:21.125Z,100830.37
2018-07-03T12:29:49.108Z,100825.17
2018-07-03T12:32:17.105Z,100820.65
2018-07-03T12:34:45.156Z,100829.59
2018-07-03T12:37:13.177Z,100830.50
2018-07-03T12:39:41.208Z,100828.17
2018-07-03T12:42:09.241Z,100823.98
2018-07-03T12:44:37.264Z,100822.00
2018-07-03T12:47:05.267Z,100822.61
2018-07-03T12:49:33.278Z,100812.95
2018-07-03T12:52:01.488Z,100814.09
2018-07-03T12:54:29.765Z,100817.47
2018-07-03T12:56:57.751Z,100808.90
2018-07-03T12:59:25.788Z,100802.75
2018-07-03T13:01:53.772Z,100808.84
2018-07-03T13:04:21.760Z,100807.36
2018-07-03T13:06:49.788Z,100808.30
2018-07-03T13:09:17.813Z,100800.73
2018-07-03T13:11:45.825Z,100809.64
2018-07-03T13:14:13.861Z,100804.08
2018-07-03T13:16:41.887Z,100799.58
2018-07-03T13:19:09.909Z,100797.30
2018-07-03T13:21:37.900Z,100790.20
2018-07-03T13:24:06.236Z,100787.75
2018-07-03T13:26:34.252Z,100789.50
2018-07-03T13:29:02.271Z,100785.11
2018-07-03T13:31:30.280Z,100791.62
2018-07-03T13:33:58.277Z,100791.41
2018-07-03T13:36:26.298Z,100781.44
2018-07-03T13:38:54.264Z,100791.59
2018-07-03T13:41:22.336Z,100781.77
2018-07-03T13:43:50.485Z,100780.31
2018-07-03T13:46:18.465Z,100779.78
2018-07-03T13:48:46.563Z,100772.77
2018-07-03T13:51:14.577Z,100768.98
2018-07-03T13:53:42.575Z,100776.72
2018-07-03T13:56:10.600Z,100777.06
2018-07-03T13:58:38.613Z,100775.15
2018-07-03T14:01:06.620Z,100773.41
2018-07-03T14:03:34.715Z,100772.27
2018-07-03T14:06:02.753Z,100771.17
2018-07-03T14:08:30.744Z,100774.78
2018-07-03T14:10:58.760Z,100777.25
2018-07-03T14:13:27.081Z,100772.81
2018-07-03T14:15:55.076Z,100770.75
2018-07-03T14:18:25.857Z,100772.59
2018-07-03T14:20:55.369Z,100759.23
2018-07-03T14:23:23.369Z,100757.94
2018-07-03T14:25:51.365Z,100763.70
2018-07-03T14:28:19.365Z,100761.47
2018-07-03T14:30:47.350Z,100758.30
2018-07-03T14:33:15.333Z,100749.20
2018-07-03T14:35:43.353Z,100750.72
2018-07-03T14:38:11.341Z,100758.45
2018-07-03T14:40:39.465Z,100757.96
2018-07-03T14:43:07.497Z,100757.52
2018-07-03T14:45:35.524Z,100758.05
2018-07-03T14:48:03.524Z,100743.75
2018-07-03T14:50:31.537Z,100759.59
2018-07-03T14:52:59.512Z,100749.80
2018-07-03T14:55:27.575Z,100759.16
2018-07-03T14:57:55.541Z,100748.61
2018-07-03T15:00:23.705Z,100751.76
2018-07-03T15:02:51.858Z,100746.42
2018-07-03T15:05:19.909Z,100747.32
2018-07-03T15:07:47.892Z,100754.28
2018-07-03T15:10:15.890Z,100751.39
2018-07-03T15:12:43.873Z,100755.87
2018-07-03T15:15:11.657Z,100745.55
2018-07-03T15:17:39.677Z,100749.07
2018-07-03T15:20:07.681Z,100749.39
2018-07-03T15:22:35.683Z,100743.72
2018-07-03T15:25:03.730Z,100734.09
2018-07-03T15:27:31.729Z,100736.70
2018-07-03T15:29:59.732Z,100730.16
2018-07-03T15:32:27.705Z,100732.29
2018-07-03T15:34:55.684Z,100730.12
2018-07-03T15:37:23.708Z,100730.72
2018-07-03T15:39:52.088Z,100725.87
2018-07-03T15:42:20.074Z,100723.48
2018-07-03T15:45:03.434Z,100722.58
2018-07-03T15:47:31.430Z,100727.33
2018-07-03T15:49:59.450Z,100722.81
2018-07-03T15:52:27.471Z,100719.56
2018-07-03T15:54:55.489Z,100716.56
2018-07-03T15:57:23.524Z,100723.61
2018-07-03T15:59:51.567Z,100724.27
2018-07-03T16:02:19.576Z,100722.47
2018-07-03T16:05:10.313Z,100721.55
2018-07-03T16:09:48.748Z,100711.30
2018-07-03T16:12:16.779Z,100717.88
2018-07-03T16:14:44.777Z,100709.39
2018-07-03T16:17:12.789Z,100707.76
2018-07-03T16:19:46.077Z,100709.23
2018-07-03T16:22:14.116Z,100703.86
2018-07-03T16:24:42.149Z,100697.30
2018-07-03T16:27:10.137Z,100697.20
2018-07-03T16:29:38.180Z,100694.05
2018-07-03T16:32:06.165Z,100698.02
2018-07-03T16:34:34.177Z,100694.48
2018-07-03T16:37:02.196Z,100690.12
2018-07-03T16:39:30.199Z,100698.91
2018-07-03T16:41:58.196Z,100699.76
2018-07-03T16:44:26.191Z,100697.20
2018-07-03T16:46:54.213Z,100697.03
2018-07-03T16:49:22.286Z,100688.77
2018-07-03T16:51:50.303Z,100700.58
2018-07-03T16:54:18.377Z,100698.64
2018-07-03T16:56:46.530Z,100694.47
2018-07-03T16:59:14.526Z,100694.58
2018-07-03T17:01:42.508Z,100692.34
2018-07-03T17:04:10.523Z,100694.20
2018-07-03T17:06:38.563Z,100697.70
2018-07-03T17:09:09.253Z,100704.78
2018-07-03T17:11:37.339Z,100699.77
2018-07-03T17:14:06.899Z,100704.94
2018-07-03T17:16:34.902Z,100701.41
2018-07-03T17:19:41.248Z,100703.00
2018-07-03T17:22:09.331Z,100711.91
2018-07-03T17:24:37.332Z,100707.43
2018-07-03T17:27:06.004Z,100705.00
2018-07-03T17:29:34.553Z,100703.12
2018-07-03T17:32:02.726Z,100703.14
2018-07-03T17:34:30.793Z,100702.02
2018-07-03T17:36:58.788Z,100712.30
2018-07-03T17:39:38.201Z,100713.17
2018-07-03T17:42:17.848Z,100705.53
2018-07-03T17:45:54.756Z,100703.77
2018-07-03T17:48:22.781Z,100699.81
2018-07-03T17:50:50.796Z,100696.48
2018-07-03T17:53:18.862Z,100696.88
2018-07-03T17:55:46.837Z,100697.51
2018-07-03T17:58:14.969Z,100694.95
2018-07-03T18:00:42.961Z,100697.20
2018-07-03T18:03:10.981Z,100694.06
2018-07-03T18:05:38.973Z,100696.91
2018-07-03T18:08:07.008Z,100697.38
2018-07-03T18:10:35.021Z,100700.22
2018-07-03T18:13:03.093Z,100699.45
2018-07-03T18:15:31.128Z,100705.39
2018-07-03T18:17:59.129Z,100700.38
2018-07-03T18:20:27.117Z,100709.45
2018-07-03T18:22:55.218Z,100710.28
2018-07-03T18:25:23.236Z,100711.67
2018-07-03T18:27:51.287Z,100714.86
2018-07-03T18:30:19.349Z,100713.70
2018-07-03T18:32:47.342Z,100722.73
2018-07-03T18:35:15.382Z,100720.44
2018-07-03T18:37:43.364Z,100726.30
2018-07-03T18:40:11.386Z,100710.88
2018-07-03T18:42:39.436Z,100719.08
2018-07-03T18:45:07.512Z,100719.80
2018-07-03T18:47:35.728Z,100719.66
2018-07-03T18:50:04.133Z,100721.47
2018-07-03T18:52:32.196Z,100722.75
2018-07-03T18:55:00.197Z,100717.64
2018-07-03T18:57:28.253Z,100721.01
2018-07-03T18:59:56.724Z,100722.67
2018-07-03T19:02:24.730Z,100721.55
2018-07-03T19:04:52.763Z,100720.52
2018-07-03T19:07:20.776Z,100720.88
2018-07-03T19:09:48.834Z,100712.60
2018-07-03T19:12:16.905Z,100708.31
2018-07-03T19:14:44.976Z,100710.86
2018-07-03T19:17:13.036Z,100714.87
2018-07-03T19:19:41.113Z,100716.48
2018-07-03T19:22:09.142Z,100714.92
2018-07-03T19:24:37.163Z,100714.77
2018-07-03T19:27:05.304Z,100720.98
2018-07-03T19:29:33.484Z,100720.00
2018-07-03T19:32:01.504Z,100720.27
2018-07-03T19:34:29.524Z,100721.72
2018-07-03T19:36:57.522Z,100722.96
2018-07-03T19:39:25.669Z,100731.06
2018-07-03T19:41:53.706Z,100728.67
2018-07-03T19:44:21.689Z,100719.31
2018-07-03T19:46:49.701Z,100725.10
2018-07-03T19:49:17.737Z,100732.41
2018-07-03T19:51:45.720Z,100736.42
2018-07-03T19:54:13.789Z,100738.68
2018-07-03T19:56:41.818Z,100737.84
2018-07-03T19:59:09.871Z,100739.22
2018-07-03T20:01:37.866Z,100741.24
2018-07-03T20:04:05.966Z,100747.86
2018-07-03T20:06:33.985Z,100746.20
2018-07-03T20:09:01.992Z,100751.89
2018-07-03T20:11:29.988Z,100752.39
2018-07-03T20:13:57.964Z,100750.52
2018-07-03T20:16:26.000Z,100757.73
2018-07-03T20:18:54.191Z,100756.22
2018-07-03T20:21:22.239Z,100762.64
2018-07-03T20:23:50.241Z,100759.92
2018-07-03T20:26:18.327Z,100766.13
2018-07-03T20:28:46.513Z,100769.27
2018-07-03T20:31:14.584Z,100767.22
2018-07-03T20:33:42.648Z,100772.01
2018-07-03T20:36:10.640Z,100774.19
2018-07-03T20:38:38.656Z,100771.66
2018-07-03T20:41:08.074Z,100773.17
2018-07-03T20:43:37.481Z,100777.73
2018-07-03T20:46:06.181Z,100780.64
2018-07-03T20:48:34.285Z,100783.17
2018-07-03T20:51:02.428Z,100783.33
2018-07-03T20:53:30.484Z,100781.80
2018-07-03T20:55:58.682Z,100787.17
2018-07-03T20:58:26.706Z,100787.56
2018-07-03T21:00:54.712Z,100796.46
2018-07-03T21:03:22.807Z,100792.07
2018-07-03T21:05:51.045Z,100794.91
2018-07-03T21:08:18.806Z,100787.46
2018-07-03T21:10:47.109Z,100792.00
2018-07-03T21:13:15.096Z,100794.06
2018-07-03T21:15:43.149Z,100791.66
2018-07-03T21:18:11.152Z,100791.06
2018-07-03T21:20:39.356Z,100795.50
2018-07-03T21:23:07.352Z,100788.07
2018-07-03T21:25:35.349Z,100788.07
2018-07-03T21:28:03.766Z,100779.70
2018-07-03T21:30:31.789Z,100787.55
2018-07-03T21:32:59.804Z,100783.98
2018-07-03T21:35:27.833Z,100784.62
2018-07-03T21:37:55.836Z,100785.82
2018-07-03T21:40:23.837Z,100790.70
2018-07-03T21:42:51.881Z,100785.09
2018-07-03T21:45:19.885Z,100786.04
2018-07-03T21:47:47.885Z,100778.44
2018-07-03T21:50:15.888Z,100778.24
2018-07-03T21:52:43.905Z,100780.75
2018-07-03T21:55:11.913Z,100777.87
2018-07-03T21:57:39.900Z,100786.81
2018-07-03T22:00:08.853Z,100784.07
2018-07-03T22:02:37.021Z,100779.02
2018-07-03T22:05:05.390Z,100780.06
2018-07-03T22:07:33.452Z,100783.11
2018-07-03T22:10:01.472Z,100782.91
2018-07-03T22:12:29.462Z,100788.34
2018-07-03T22:14:57.532Z,100788.25
2018-07-03T22:17:25.552Z,100783.16
2018-07-03T22:19:53.577Z,100781.14
2018-07-03T22:22:21.605Z,100781.28
2018-07-03T22:24:49.717Z,100784.03
2018-07-03T22:27:17.757Z,100786.70
2018-07-03T22:29:45.743Z,100789.92
2018-07-03T22:32:13.768Z,100783.87
2018-07-03T22:34:41.736Z,100777.60
2018-07-03T22:37:09.775Z,100784.87
2018-07-03T22:39:37.839Z,100786.50
2018-07-03T22:42:05.808Z,100788.88
2018-07-03T22:44:33.801Z,100790.35
2018-07-03T22:47:01.841Z,100789.29
2018-07-03T22:49:29.828Z,100786.64
2018-07-03T22:51:57.842Z,100781.99
2018-07-03T22:54:25.869Z,100789.37
2018-07-03T22:56:53.852Z,100790.58
2018-07-03T22:59:21.881Z,100785.09
2018-07-03T23:01:49.886Z,100782.20
2018-07-03T23:04:17.902Z,100779.91
2018-07-03T23:06:46.708Z,100779.41
2018-07-03T23:09:14.717Z,100774.88
2018-07-03T23:11:43.805Z,100781.52
2018-07-03T23:14:11.799Z,100782.86
2018-07-03T23:16:39.813Z,100778.32
2018-07-03T23:19:07.796Z,100779.91
2018-07-03T23:21:35.804Z,100779.28
2018-07-03T23:24:03.821Z,100773.51
2018-07-03T23:26:31.808Z,100774.56
2018-07-03T23:28:59.811Z,100778.01
2018-07-03T23:31:27.830Z,100776.95
2018-07-03T23:33:55.846Z,100781.36
2018-07-03T23:36:23.840Z,100781.52
2018-07-03T23:38:51.872Z,100787.58
2018-07-03T23:41:19.892Z,100787.48
2018-07-03T23:43:47.889Z,100783.91
2018-07-03T23:46:27.409Z,100782.67
2018-07-03T23:49:07.052Z,100778.94
2018-07-03T23:51:46.577Z,100774.22
2018-07-03T23:54:26.107Z,100782.51
2018-07-03T23:57:05.687Z,100788.34
2018-07-03T23:59:45.320Z,100778.06
